Record high temperature 42.2°C Record low temperature -14.6°C Record high gust 76.2 km/h Record high average 96.8 km/h Record daily rain 63.7 mm Record low windchill -17.5°C Record high barometer 1046.0 hPa Record low barometer 960.0 hPa
Daily high pressure 996.0 hPa Daily low pressure 989.0 hPa Daily low windchill 7.0°C Daily high heat index 13.7°C Daily high gust speed 32.4 kmh SSE Daily high average speed 19.4 kmh SSE

This page is updated from recent data collected by a WMR200 weather station Use the Reload or Refresh facility on your browser to retrieve the latest data.

Status report of weather station: Bienvenue sur la Station Météo de Godarville



Weather report/warning/Metars

Alexandroupoli Airport , Greece (LGAL) 40-51N 025-55E 3M
May 15, 2021 - 07:20 AM EDT / 2021.05.15 1120 UTC
Wind: from the S (180 degrees) at 8 MPH (7 KT):0
Visibility: greater than 7 mile(s):0
Sky conditions: mostly clear
Temperature: 73 F (23 C)
Dew Point: 50 F (10 C)
Relative Humidity: 43%
Pressure (altimeter): 29.85 in. Hg (1011 hPa)
ob: LGAL 151120Z 18007KT 9999 FEW025 23/10 Q1011
cycle: 11

Charleroi / Gosselies, Belgium (EBCI) 50-28N 004-27E 192M
May 15, 2021 - 07:20 AM EDT / 2021.05.15 1120 UTC
Wind: from the S (180 degrees) at 12 MPH (10 KT) (direction variable):0
Visibility: greater than 7 mile(s):0
Sky conditions: mostly cloudy
Weather: light rain showers
Temperature: 50 F (10 C)
Dew Point: 44 F (7 C)
Relative Humidity: 81%
Pressure (altimeter): 29.62 in. Hg (1003 hPa)
ob: EBCI 151120Z 18010KT 120V220 9999 -SHRA FEW015 SCT022 BKN040 10/07 Q1003 NOSIG
cycle: 11

Bruxelles National, Belgium (EBBR) 50-54N 004-32E 58M
May 15, 2021 - 07:20 AM EDT / 2021.05.15 1120 UTC
Wind: from the S (190 degrees) at 15 MPH (13 KT):0
Visibility: greater than 7 mile(s):0
Sky conditions: partly cloudy
Weather: showers in the vicinity; Towering cumulus clouds observed
Temperature: 51 F (11 C)
Dew Point: 44 F (7 C)
Relative Humidity: 76%
Pressure (altimeter): 29.62 in. Hg (1003 hPa)
ob: EBBR 151120Z 19013KT 9999 VCSH SCT030 SCT048 11/07 Q1003 TEMPO 4000 RA SHRA SCT008 BKN014TCU
cycle: 11

Koksijde, Belgium (EBFN) 51-05N 002-39E 9M
May 15, 2021 - 07:36 AM EDT / 2021.05.15 1136 UTC
Wind: from the SSE (160 degrees) at 13 MPH (11 KT):0
Visibility: greater than 7 mile(s):0
Sky conditions: overcast
Temperature: 51 F (11 C)
Dew Point: 46 F (8 C)
Relative Humidity: 81%
Pressure (altimeter): 29.56 in. Hg (1001 hPa)
ob: EBFN 151136Z AUTO 16011KT 9999 OVC014/// 11/08 Q1001 GRN
cycle: 11

Poznan, Poland (EPPO) 52-25N 016-50E 92M
May 15, 2021 - 07:30 AM EDT / 2021.05.15 1130 UTC
Wind: from the S (170 degrees) at 9 MPH (8 KT) (direction variable):0
Visibility: greater than 7 mile(s):0
Sky conditions: partly cloudy
Temperature: 66 F (19 C)
Dew Point: 44 F (7 C)
Relative Humidity: 45%
Pressure (altimeter): 29.74 in. Hg (1007 hPa)
ob: EPPO 151130Z 17008KT 160V230 9999 SCT042 19/07 Q1007 
cycle: 11



Coucher du Soleil:
21:23:00

Lever de Lune:
07:25:46 14/05/21

Coucher de Lune:
00:09:32 15/05/21

Premier Quartier 19 mai 2021
Pleine Lune 26 mai 2021
Dernier Quartier 2 juin 2021
Nouvelle Lune 10 juin 2021
Âge de lune : 2 jours,18 heures,55 minutes,9%
Les heures du jour possible étaient aujourd’hui 15:27



The data is logged at two minute intervals, but there is data recorded every minute.

Use the RELOAD facility on your browser to retrieve the latest data.

Click here for a daily update of the averages/extremes to date for the month
Created by "Weather Display" software version 10.37P at this start time/date 10:33:41 11/05/2021